createdAt,value
2018-06-23T02:10:48.389Z,8.80
2018-06-23T02:13:17.288Z,8.90
2018-06-23T02:15:51.670Z,8.80
2018-06-23T02:19:29.064Z,8.70
2018-06-23T02:22:03.355Z,8.50
2018-06-23T02:24:37.823Z,8.40
2018-06-23T02:27:12.337Z,8.40
2018-06-23T02:29:46.695Z,8.60
2018-06-23T02:32:21.191Z,8.50
2018-06-23T02:34:55.545Z,8.50
2018-06-23T02:37:24.432Z,8.30
2018-06-23T02:39:53.344Z,8.30
2018-06-23T02:42:22.272Z,8.30
2018-06-23T02:44:51.166Z,8.30
2018-06-23T02:47:20.132Z,8.50
2018-06-23T02:49:49.160Z,8.60
2018-06-23T02:52:18.176Z,8.50
2018-06-23T02:54:47.101Z,8.30
2018-06-23T02:57:15.996Z,8.60
2018-06-23T02:59:44.911Z,8.50
2018-06-23T03:02:13.829Z,8.30
2018-06-23T03:04:42.737Z,8.20
2018-06-23T03:07:11.661Z,8.10
2018-06-23T03:09:40.573Z,8.00
2018-06-23T03:12:09.468Z,7.90
2018-06-23T03:14:38.956Z,7.90
2018-06-23T03:17:13.370Z,7.90
2018-06-23T03:19:42.436Z,7.90
2018-06-23T03:22:11.337Z,7.90
2018-06-23T03:24:40.251Z,8.00
2018-06-23T03:27:09.156Z,8.00
2018-06-23T03:29:38.285Z,8.20
2018-06-23T03:32:07.591Z,8.30
2018-06-23T03:34:36.496Z,8.30
2018-06-23T03:37:05.411Z,8.30
2018-06-23T03:39:34.320Z,8.30
2018-06-23T03:42:03.235Z,8.30
2018-06-23T03:47:00.688Z,8.50
2018-06-23T03:49:29.616Z,8.50
2018-06-23T03:51:58.527Z,8.50
2018-06-23T03:54:27.424Z,8.60
2018-06-23T03:56:56.339Z,8.60
2018-06-23T03:59:25.384Z,8.70
2018-06-23T04:01:54.539Z,8.80
2018-06-23T04:04:23.436Z,9.00
2018-06-23T04:06:52.323Z,9.10
2018-06-23T04:09:21.234Z,9.20
2018-06-23T04:11:50.136Z,9.30
2018-06-23T04:14:19.332Z,9.40
2018-06-23T04:16:48.303Z,9.80
2018-06-23T04:19:18.488Z,10.50
2018-06-23T04:21:47.454Z,11.50
2018-06-23T04:24:16.351Z,11.80
2018-06-23T04:26:45.340Z,11.80
2018-06-23T04:29:14.315Z,11.40
2018-06-23T04:31:43.200Z,10.90
2018-06-23T04:34:12.097Z,11.20
2018-06-23T04:36:41.011Z,12.10
2018-06-23T04:39:09.913Z,13.20
2018-06-23T04:41:38.816Z,13.50
2018-06-23T04:44:07.760Z,12.90
2018-06-23T04:46:36.653Z,12.30
2018-06-23T04:49:05.604Z,11.90
2018-06-23T04:51:35.481Z,11.40
2018-06-23T04:54:04.387Z,11.00
2018-06-23T04:56:33.312Z,10.80
2018-06-23T04:59:02.236Z,10.90
2018-06-23T05:01:31.140Z,11.00
2018-06-23T05:04:00.048Z,11.80
2018-06-23T05:06:28.963Z,12.20
2018-06-23T05:08:57.860Z,12.00
2018-06-23T05:11:26.772Z,12.30
2018-06-23T05:13:55.683Z,12.90
2018-06-23T05:16:25.604Z,12.80
2018-06-23T05:18:54.644Z,14.20
2018-06-23T05:21:23.506Z,15.30
2018-06-23T05:23:52.444Z,15.30
2018-06-23T05:26:21.504Z,15.00
2018-06-23T05:28:50.427Z,15.10
2018-06-23T05:31:20.368Z,15.60
2018-06-23T05:33:49.264Z,16.40
2018-06-23T05:36:18.826Z,17.40
2018-06-23T05:38:47.719Z,18.30
2018-06-23T05:41:16.604Z,17.30
2018-06-23T05:43:45.598Z,17.30
2018-06-23T05:46:14.472Z,18.40
2018-06-23T05:48:43.379Z,19.60
2018-06-23T05:53:40.915Z,21.00
2018-06-23T05:56:09.797Z,21.80
2018-06-23T05:58:38.931Z,21.80
2018-06-23T06:01:13.012Z,22.30
2018-06-23T06:03:41.941Z,22.50
2018-06-23T06:06:10.832Z,22.90
2018-06-23T06:08:39.775Z,22.80
2018-06-23T06:11:08.688Z,22.90
2018-06-23T06:13:37.603Z,22.80
2018-06-23T06:16:06.569Z,23.20
2018-06-23T06:18:35.488Z,23.30
2018-06-23T06:21:04.380Z,23.40
2018-06-23T06:23:33.891Z,23.80
2018-06-23T06:26:02.795Z,23.70
2018-06-23T06:28:31.713Z,24.10
2018-06-23T06:31:00.759Z,24.20
2018-06-23T06:33:29.665Z,24.40
2018-06-23T06:38:27.384Z,24.10
2018-06-23T06:40:57.171Z,24.80
2018-06-23T06:43:26.152Z,24.80
2018-06-23T06:45:55.127Z,25.20
2018-06-23T06:48:24.028Z,25.40
2018-06-23T06:53:21.491Z,25.10
2018-06-23T06:55:50.412Z,22.80
2018-06-23T06:58:19.320Z,21.30
2018-06-23T07:00:48.242Z,20.00
2018-06-23T07:03:17.159Z,19.10
2018-06-23T07:05:46.099Z,18.60
2018-06-23T07:08:15.016Z,18.20
2018-06-23T07:10:43.984Z,18.30
2018-06-23T07:13:12.913Z,18.70
2018-06-23T07:15:41.818Z,18.50
2018-06-23T07:18:10.738Z,18.20
2018-06-23T07:20:40.388Z,19.60
2018-06-23T07:23:10.315Z,21.50
2018-06-23T07:25:39.254Z,23.20
2018-06-23T07:28:08.164Z,22.50
2018-06-23T07:30:37.056Z,23.50
2018-06-23T07:33:06.132Z,24.30
2018-06-23T07:38:04.648Z,24.50
2018-06-23T07:40:33.717Z,23.60
2018-06-23T07:43:02.648Z,22.30
2018-06-23T07:45:31.581Z,20.60
2018-06-23T07:48:00.523Z,19.70
2018-06-23T07:50:29.929Z,19.70
2018-06-23T07:52:58.852Z,19.50
2018-06-23T07:55:27.788Z,19.10
2018-06-23T07:57:56.708Z,19.60
2018-06-23T08:00:25.647Z,21.40
2018-06-23T08:02:54.546Z,22.90
2018-06-23T08:05:23.454Z,24.00
2018-06-23T08:07:52.356Z,24.60
2018-06-23T08:10:21.320Z,25.60
2018-06-23T08:12:50.189Z,26.10
2018-06-23T08:15:19.115Z,24.80
2018-06-23T08:20:16.683Z,24.50
2018-06-23T08:22:45.613Z,26.00
2018-06-23T08:25:14.527Z,26.60
2018-06-23T08:27:43.445Z,27.70
2018-06-23T08:30:12.388Z,27.70
2018-06-23T08:32:41.331Z,28.00
2018-06-23T08:35:10.258Z,26.50
2018-06-23T08:37:39.199Z,25.10
2018-06-23T08:40:08.088Z,23.60
2018-06-23T08:42:37.089Z,23.90
2018-06-23T08:45:06.014Z,24.50
2018-06-23T08:47:35.252Z,23.10
2018-06-23T08:50:04.309Z,21.90
2018-06-23T08:52:33.236Z,21.00
2018-06-23T08:55:02.188Z,19.90
2018-06-23T08:57:31.092Z,19.30
2018-06-23T09:00:00.071Z,19.80
2018-06-23T09:02:29.116Z,19.90
2018-06-23T09:04:58.136Z,19.60
2018-06-23T09:07:27.040Z,21.00
2018-06-23T09:09:56.423Z,22.00
2018-06-23T09:12:25.364Z,22.50
2018-06-23T09:14:54.267Z,22.20
2018-06-23T09:17:23.211Z,21.40
2018-06-23T09:19:52.455Z,20.80
2018-06-23T09:22:21.405Z,19.60
2018-06-23T09:24:51.079Z,19.40
2018-06-23T09:27:20.080Z,19.20
2018-06-23T09:29:48.983Z,18.80
2018-06-23T09:32:17.904Z,19.10
2018-06-23T09:34:46.828Z,19.70
2018-06-23T09:37:15.752Z,20.30
2018-06-23T09:39:45.547Z,20.80
2018-06-23T09:42:14.584Z,22.40
2018-06-23T09:44:43.548Z,21.90
2018-06-23T09:47:12.459Z,20.30
2018-06-23T09:49:41.373Z,19.40
2018-06-23T09:52:10.328Z,19.30
2018-06-23T09:54:39.610Z,18.90
2018-06-23T09:57:09.547Z,18.40
2018-06-23T09:59:39.325Z,18.50
2018-06-23T10:02:08.744Z,18.40
2018-06-23T10:04:37.670Z,18.40
2018-06-23T10:07:06.614Z,18.60
2018-06-23T10:09:35.531Z,19.10
2018-06-23T10:12:04.553Z,19.10
2018-06-23T10:14:33.440Z,19.40
2018-06-23T10:17:02.374Z,19.80
2018-06-23T10:19:31.336Z,20.10
2018-06-23T10:22:00.320Z,19.90
2018-06-23T10:24:29.257Z,19.70
2018-06-23T10:26:58.361Z,19.80
2018-06-23T10:29:27.337Z,20.30
2018-06-23T10:31:56.639Z,20.30
2018-06-23T10:34:25.551Z,19.70
2018-06-23T10:36:54.444Z,19.40
2018-06-23T10:39:23.360Z,19.10
2018-06-23T10:41:52.919Z,19.70
2018-06-23T10:44:21.986Z,19.90
2018-06-23T10:46:50.844Z,20.30
2018-06-23T10:49:19.863Z,20.00
2018-06-23T10:51:48.763Z,20.30
2018-06-23T10:54:17.674Z,20.30
2018-06-23T10:56:46.637Z,20.00
2018-06-23T10:59:15.551Z,20.30
2018-06-23T11:01:44.460Z,21.00
2018-06-23T11:04:13.384Z,21.40
2018-06-23T11:06:42.308Z,21.90
2018-06-23T11:09:11.705Z,21.20
2018-06-23T11:11:40.614Z,21.80
2018-06-23T11:16:38.672Z,22.00
2018-06-23T11:19:07.580Z,21.10
2018-06-23T11:21:36.793Z,20.10
2018-06-23T11:24:05.719Z,19.80
2018-06-23T11:26:34.624Z,20.30
2018-06-23T11:29:03.587Z,20.70
2018-06-23T11:31:32.484Z,20.60
2018-06-23T11:34:01.969Z,20.00
2018-06-23T11:36:30.863Z,19.50
2018-06-23T11:38:59.798Z,19.00
2018-06-23T11:41:28.726Z,19.00
2018-06-23T11:43:57.609Z,19.30
2018-06-23T11:46:26.621Z,19.70
2018-06-23T11:48:55.506Z,20.30
2018-06-23T11:51:24.460Z,20.70
2018-06-23T11:53:53.386Z,21.30
2018-06-23T11:56:22.347Z,21.10
2018-06-23T11:58:51.270Z,21.00
2018-06-23T12:01:20.488Z,19.90
2018-06-23T12:03:49.408Z,20.20
2018-06-23T12:06:21.868Z,20.40
2018-06-23T12:08:50.780Z,20.60
2018-06-23T12:11:20.075Z,20.80
2018-06-23T12:13:49.383Z,20.90
2018-06-23T12:16:18.676Z,20.80
2018-06-23T12:18:48.014Z,20.70
2018-06-23T12:21:16.912Z,20.60
2018-06-23T12:23:46.148Z,20.90
2018-06-23T12:26:16.060Z,20.60
2018-06-23T12:28:44.979Z,20.70
2018-06-23T12:31:13.956Z,20.60
2018-06-23T12:33:42.857Z,20.90
2018-06-23T12:36:11.779Z,20.80
2018-06-23T12:38:41.107Z,20.50
2018-06-23T12:41:13.069Z,20.30
2018-06-23T12:43:41.932Z,20.20
2018-06-23T12:46:10.852Z,20.40
2018-06-23T12:48:39.775Z,20.10
2018-06-23T12:51:08.712Z,20.20
2018-06-23T12:53:37.927Z,20.80
2018-06-23T12:56:06.854Z,20.50
2018-06-23T12:58:35.783Z,20.40
2018-06-23T13:01:04.719Z,20.50
2018-06-23T13:03:33.663Z,20.80
2018-06-23T13:06:02.616Z,20.80
2018-06-23T13:08:31.529Z,20.50
2018-06-23T13:11:00.684Z,20.50
2018-06-23T13:13:29.584Z,20.20
2018-06-23T13:15:58.493Z,20.20
2018-06-23T13:18:27.396Z,20.40
2018-06-23T13:20:57.068Z,20.30
2018-06-23T13:23:25.983Z,20.50
2018-06-23T13:25:54.911Z,20.50
2018-06-23T13:28:23.836Z,19.90
2018-06-23T13:30:52.761Z,19.90
2018-06-23T13:33:21.675Z,19.70
2018-06-23T13:35:50.615Z,19.60
2018-06-23T13:38:19.504Z,19.70
2018-06-23T13:40:48.420Z,19.90
2018-06-23T13:43:17.435Z,20.00
2018-06-23T13:45:46.361Z,19.90
2018-06-23T13:48:15.420Z,19.90
2018-06-23T13:50:44.423Z,19.90
2018-06-23T13:53:13.357Z,19.90
2018-06-23T13:55:42.310Z,19.80
2018-06-23T13:58:11.231Z,20.10
2018-06-23T14:00:40.176Z,20.10
2018-06-23T14:03:09.138Z,20.20
2018-06-23T14:05:37.992Z,20.10
2018-06-23T14:08:07.097Z,19.80
2018-06-23T14:10:36.000Z,19.80
2018-06-23T14:13:05.077Z,19.60
2018-06-23T14:15:33.980Z,19.80
2018-06-23T14:18:02.936Z,19.70
2018-06-23T14:20:31.867Z,19.80
2018-06-23T14:23:00.780Z,19.90
2018-06-23T14:25:29.752Z,19.50
2018-06-23T14:27:58.758Z,19.40
2018-06-23T14:30:27.635Z,19.40
2018-06-23T14:32:56.559Z,19.80
2018-06-23T14:35:25.492Z,19.70
2018-06-23T14:37:54.396Z,19.60
2018-06-23T14:40:23.291Z,19.20
2018-06-23T14:42:52.486Z,18.90
2018-06-23T14:45:21.487Z,19.00
2018-06-23T14:47:50.420Z,18.80
2018-06-23T14:50:19.328Z,18.80
2018-06-23T14:52:48.280Z,18.60
2018-06-23T14:55:17.209Z,18.70
2018-06-23T14:57:46.104Z,18.90
2018-06-23T15:00:15.026Z,19.20
2018-06-23T15:02:43.940Z,19.50
2018-06-23T15:05:12.936Z,19.60
2018-06-23T15:07:41.856Z,19.60
2018-06-23T15:10:22.228Z,19.70
2018-06-23T15:13:02.552Z,20.00
2018-06-23T15:15:31.903Z,20.10
2018-06-23T15:18:01.108Z,20.00
2018-06-23T15:20:30.003Z,19.80
2018-06-23T15:22:58.927Z,19.80
2018-06-23T15:25:27.851Z,20.00
2018-06-23T15:27:56.815Z,20.10
2018-06-23T15:30:25.698Z,20.20
2018-06-23T15:32:54.603Z,20.00
2018-06-23T15:35:23.562Z,19.80
2018-06-23T15:37:52.778Z,19.80
2018-06-23T15:40:21.877Z,19.60
2018-06-23T15:42:50.850Z,19.80
2018-06-23T15:45:19.759Z,20.00
2018-06-23T15:47:49.265Z,20.20
2018-06-23T15:50:18.424Z,20.30
2018-06-23T15:52:47.327Z,19.90
2018-06-23T15:55:16.240Z,19.70
2018-06-23T15:57:45.182Z,19.60
2018-06-23T16:00:14.122Z,19.50
2018-06-23T16:02:42.996Z,19.40
2018-06-23T16:05:11.928Z,19.10
2018-06-23T16:07:40.882Z,19.30
2018-06-23T16:10:14.612Z,19.30
2018-06-23T16:12:43.657Z,19.40
2018-06-23T16:15:12.552Z,19.40
2018-06-23T16:17:41.473Z,19.40
2018-06-23T16:20:10.469Z,19.50
2018-06-23T16:22:39.378Z,19.60
2018-06-23T16:25:08.506Z,19.60
2018-06-23T16:27:37.450Z,19.50
2018-06-23T16:30:06.608Z,19.40
2018-06-23T16:32:35.547Z,19.40
2018-06-23T16:35:04.737Z,19.20
2018-06-23T16:37:33.609Z,19.20
2018-06-23T16:40:02.662Z,19.00
2018-06-23T16:42:31.566Z,18.90
2018-06-23T16:45:00.560Z,18.90
2018-06-23T16:47:29.752Z,19.00
2018-06-23T16:49:58.640Z,18.80
2018-06-23T16:52:27.566Z,18.70
2018-06-23T16:54:56.484Z,18.80
2018-06-23T16:57:25.398Z,18.80
2018-06-23T16:59:54.413Z,18.80
2018-06-23T17:02:23.364Z,18.60
2018-06-23T17:04:52.279Z,18.60
2018-06-23T17:07:22.257Z,18.70
2018-06-23T17:09:51.180Z,18.70
2018-06-23T17:12:20.083Z,18.60
2018-06-23T17:14:49.052Z,18.40
2018-06-23T17:17:18.317Z,18.30
2018-06-23T17:19:47.296Z,18.30
2018-06-23T17:22:16.516Z,18.10
2018-06-23T17:24:45.515Z,18.00
2018-06-23T17:27:14.469Z,17.90
2018-06-23T17:29:43.413Z,17.80
2018-06-23T17:32:12.393Z,17.70
2018-06-23T17:34:41.859Z,17.70
2018-06-23T17:37:10.808Z,17.70
2018-06-23T17:39:39.728Z,17.70
2018-06-23T17:42:08.660Z,17.70
2018-06-23T17:44:37.783Z,17.60
2018-06-23T17:47:06.648Z,17.50
2018-06-23T17:49:35.555Z,17.50
2018-06-23T17:52:04.488Z,17.40
2018-06-23T17:54:33.463Z,17.40
2018-06-23T17:57:02.483Z,17.50
2018-06-23T17:59:31.303Z,17.50
2018-06-23T18:02:00.260Z,17.50
2018-06-23T18:04:29.122Z,17.60
2018-06-23T18:06:58.394Z,17.50
2018-06-23T18:09:27.285Z,17.60
2018-06-23T18:11:56.258Z,17.50
2018-06-23T18:14:26.172Z,17.50
2018-06-23T18:16:55.493Z,17.50
2018-06-23T18:19:24.347Z,17.40
2018-06-23T18:21:53.316Z,17.40
2018-06-23T18:24:22.344Z,17.30
2018-06-23T18:26:51.468Z,17.10
2018-06-23T18:29:20.420Z,17.00
2018-06-23T18:31:49.427Z,16.90
2018-06-23T18:34:18.328Z,16.90
2018-06-23T18:36:47.220Z,16.80
2018-06-23T18:39:16.228Z,16.80
2018-06-23T18:44:13.800Z,16.50
2018-06-23T18:46:42.769Z,16.40
2018-06-23T18:49:11.685Z,16.30
2018-06-23T18:51:40.627Z,16.20
2018-06-23T18:54:09.523Z,16.10
2018-06-23T18:56:38.492Z,16.10
2018-06-23T18:59:07.409Z,16.00
2018-06-23T19:01:36.380Z,15.90
2018-06-23T19:04:05.495Z,15.80
2018-06-23T19:06:34.483Z,15.60
2018-06-23T19:09:04.251Z,15.60
2018-06-23T19:11:33.097Z,15.60
2018-06-23T19:14:02.028Z,15.50
2018-06-23T19:16:31.220Z,15.40
2018-06-23T19:19:00.170Z,15.30
2018-06-23T19:21:29.096Z,15.40
2018-06-23T19:23:58.047Z,15.40
2018-06-23T19:26:26.958Z,15.30
2018-06-23T19:28:55.980Z,15.30
2018-06-23T19:31:24.974Z,15.20
2018-06-23T19:33:53.872Z,15.20
2018-06-23T19:36:22.773Z,15.20
2018-06-23T19:38:51.704Z,15.10
2018-06-23T19:41:24.308Z,15.10
2018-06-23T19:43:53.320Z,15.00
2018-06-23T19:46:22.208Z,15.00
2018-06-23T19:48:51.436Z,15.00
2018-06-23T19:51:20.397Z,14.80
2018-06-23T19:53:49.325Z,14.70
2018-06-23T19:56:18.266Z,14.60
2018-06-23T19:58:47.891Z,14.50
2018-06-23T20:01:17.498Z,14.50
2018-06-23T20:03:47.399Z,14.40
2018-06-23T20:06:16.406Z,14.40
2018-06-23T20:08:45.332Z,14.40
2018-06-23T20:11:14.260Z,14.40
2018-06-23T20:13:43.156Z,14.40
2018-06-23T20:16:12.116Z,14.50
2018-06-23T20:18:41.013Z,14.50
2018-06-23T20:21:09.985Z,14.50
2018-06-23T20:23:39.048Z,14.50
2018-06-23T20:26:07.914Z,14.40
2018-06-23T20:28:36.862Z,14.30
2018-06-23T20:31:06.145Z,14.20
2018-06-23T20:33:35.484Z,14.30
2018-06-23T20:36:04.604Z,14.20
2018-06-23T20:38:33.618Z,14.10
2018-06-23T20:41:02.509Z,14.10
2018-06-23T20:43:34.809Z,14.10
2018-06-23T20:46:03.724Z,14.20
2018-06-23T20:48:32.787Z,14.20
2018-06-23T20:51:01.705Z,14.10
2018-06-23T20:53:30.625Z,14.00
2018-06-23T20:55:59.641Z,14.00
2018-06-23T20:58:28.536Z,13.90
2018-06-23T21:00:57.525Z,13.90
2018-06-23T21:03:26.385Z,13.90
2018-06-23T21:05:55.320Z,13.80
2018-06-23T21:08:24.213Z,13.70
2018-06-23T21:10:53.156Z,13.70
2018-06-23T21:13:23.096Z,13.70
2018-06-23T21:15:52.020Z,13.70
2018-06-23T21:18:21.194Z,13.50
2018-06-23T21:20:50.175Z,13.50
2018-06-23T21:23:19.100Z,13.40
2018-06-23T21:25:47.988Z,13.30
2018-06-23T21:28:16.999Z,13.40
2018-06-23T21:30:46.021Z,13.40
2018-06-23T21:33:14.875Z,13.30
2018-06-23T21:35:43.728Z,13.30
2018-06-23T21:38:12.628Z,13.20
2018-06-23T21:40:41.547Z,13.10
2018-06-23T21:43:10.480Z,13.00
2018-06-23T21:45:39.352Z,12.90
2018-06-23T21:48:08.366Z,12.80
2018-06-23T21:50:37.296Z,12.80
2018-06-23T21:55:34.858Z,12.70
2018-06-23T21:58:03.828Z,12.70
2018-06-23T22:00:35.764Z,12.80
2018-06-23T22:03:05.707Z,12.80
2018-06-23T22:05:34.847Z,12.80
2018-06-23T22:10:32.708Z,12.90
2018-06-23T22:13:02.104Z,12.90
2018-06-23T22:15:31.363Z,12.80
2018-06-23T22:18:00.291Z,12.80
2018-06-23T22:20:29.238Z,12.80
2018-06-23T22:22:58.140Z,12.70
2018-06-23T22:25:27.059Z,12.80
2018-06-23T22:27:55.992Z,12.70
2018-06-23T22:30:24.964Z,12.60
2018-06-23T22:35:22.499Z,12.60
2018-06-23T22:37:51.446Z,12.50
2018-06-23T22:40:20.452Z,12.50
2018-06-23T22:42:49.632Z,12.50
2018-06-23T22:45:18.576Z,12.40
2018-06-23T22:47:47.456Z,12.50
2018-06-23T22:50:16.364Z,12.30
2018-06-23T22:52:45.263Z,12.20
2018-06-23T22:55:14.247Z,12.20
2018-06-23T22:57:43.164Z,12.00
